NKS2231 KSAV-KBOS
Flight info
| Callsign | NKS2231 |
|---|---|
| Flight time | N/A |
| Altitude | 37000 |
| Route | JROSS ELLDE Q97 PAACK JAMIE Q133 JFK ROBUC3 |
| Aircraft | A320/M-SDE3FGHIRWY/LB1 |
Departure
| Time | 2026-04-22 02:09 |
|---|---|
| Airport | Savannah Hilton Head International Airport (KSAV) |
Arrival
| Time | N/A |
|---|---|
| Airport | Boston Logan International Airport (KBOS) |
| Time | Latitude | Longitude | Altitude | Speed | Heading |
|---|---|---|---|---|---|
| 2026-04-22 01:37 | 32.13608 | -81.20666 | 54 ft | 0 kts | 202° |
| 2026-04-22 02:00 | 32.13613 | -81.20663 | 54 ft | 4 kts | 201° |
| 2026-04-22 02:00 | 32.13638 | -81.20654 | 54 ft | 4 kts | 189° |
| 2026-04-22 02:01 | 32.13664 | -81.20653 | 54 ft | 4 kts | 148° |
| 2026-04-22 02:01 | 32.13673 | -81.20665 | 54 ft | 0 kts | 90° |
| 2026-04-22 02:03 | 32.13673 | -81.20656 | 54 ft | 5 kts | 90° |
| 2026-04-22 02:04 | 32.13671 | -81.20442 | 51 ft | 19 kts | 91° |
| 2026-04-22 02:04 | 32.13632 | -81.20335 | 51 ft | 16 kts | 165° |
| 2026-04-22 02:04 | 32.13511 | -81.20331 | 52 ft | 19 kts | 179° |
| 2026-04-22 02:05 | 32.13372 | -81.20330 | 53 ft | 21 kts | 179° |
| 2026-04-22 02:05 | 32.13216 | -81.20329 | 53 ft | 24 kts | 179° |
| 2026-04-22 02:05 | 32.13065 | -81.20331 | 53 ft | 20 kts | 189° |
| 2026-04-22 02:05 | 32.13036 | -81.20392 | 50 ft | 9 kts | 269° |
| 2026-04-22 02:06 | 32.13036 | -81.20494 | 50 ft | 14 kts | 271° |
| 2026-04-22 02:06 | 32.13038 | -81.20621 | 52 ft | 17 kts | 271° |
| 2026-04-22 02:06 | 32.13039 | -81.20770 | 52 ft | 20 kts | 271° |
| 2026-04-22 02:06 | 32.13041 | -81.20941 | 52 ft | 22 kts | 270° |
| 2026-04-22 02:07 | 32.13042 | -81.21130 | 52 ft | 25 kts | 271° |
| 2026-04-22 02:07 | 32.13045 | -81.21326 | 52 ft | 24 kts | 270° |
| 2026-04-22 02:07 | 32.13046 | -81.21513 | 52 ft | 20 kts | 270° |
| 2026-04-22 02:07 | 32.13047 | -81.21691 | 52 ft | 23 kts | 270° |
| 2026-04-22 02:08 | 32.13044 | -81.21834 | 51 ft | 17 kts | 249° |
| 2026-04-22 02:08 | 32.12957 | -81.21860 | 45 ft | 14 kts | 180° |
| 2026-04-22 02:08 | 32.12874 | -81.21821 | 39 ft | 15 kts | 96° |
| 2026-04-22 02:08 | 32.12872 | -81.21489 | 40 ft | 75 kts | 90° |
| 2026-04-22 02:09 | 32.12866 | -81.20638 | 43 ft | 131 kts | 90° |
| 2026-04-22 02:09 | 32.12840 | -81.19418 | 297 ft | 154 kts | 92° |
| 2026-04-22 02:09 | 32.12808 | -81.18150 | 938 ft | 154 kts | 92° |
| 2026-04-22 02:09 | 32.12786 | -81.16879 | 1611 ft | 154 kts | 92° |
| 2026-04-22 02:10 | 32.12801 | -81.15543 | 1977 ft | 174 kts | 81° |
| 2026-04-22 02:10 | 32.13245 | -81.14134 | 2244 ft | 198 kts | 65° |
| 2026-04-22 02:10 | 32.13934 | -81.12596 | 2572 ft | 224 kts | 63° |
| 2026-04-22 02:10 | 32.14813 | -81.10962 | 3023 ft | 249 kts | 47° |
| 2026-04-22 02:11 | 32.16243 | -81.09711 | 3808 ft | 260 kts | 34° |
| 2026-04-22 02:11 | 32.17744 | -81.08492 | 4743 ft | 263 kts | 36° |
| 2026-04-22 02:11 | 32.19241 | -81.07211 | 5659 ft | 268 kts | 36° |
| 2026-04-22 02:11 | 32.20731 | -81.05915 | 6572 ft | 270 kts | 36° |
| 2026-04-22 02:12 | 32.22253 | -81.04593 | 7489 ft | 273 kts | 36° |
| 2026-04-22 02:12 | 32.23802 | -81.03254 | 8346 ft | 278 kts | 35° |
| 2026-04-22 02:12 | 32.25373 | -81.01902 | 9180 ft | 281 kts | 35° |
| 2026-04-22 02:12 | 32.26969 | -81.00535 | 10026 ft | 284 kts | 35° |
| 2026-04-22 02:13 | 32.28621 | -80.99125 | 10491 ft | 303 kts | 34° |
| 2026-04-22 02:13 | 32.30399 | -80.97612 | 10718 ft | 326 kts | 34° |
| 2026-04-22 02:13 | 32.32256 | -80.96035 | 11224 ft | 336 kts | 34° |
| 2026-04-22 02:13 | 32.34175 | -80.94405 | 11934 ft | 341 kts | 34° |
| 2026-04-22 02:14 | 32.36106 | -80.92756 | 12688 ft | 342 kts | 33° |
| 2026-04-22 02:14 | 32.38043 | -80.91099 | 13374 ft | 346 kts | 33° |
| 2026-04-22 02:14 | 32.40003 | -80.89425 | 14029 ft | 349 kts | 33° |
| 2026-04-22 02:14 | 32.41988 | -80.87729 | 14681 ft | 353 kts | 33° |
| 2026-04-22 02:15 | 32.43972 | -80.86033 | 15292 ft | 357 kts | 32° |
| 2026-04-22 02:15 | 32.45990 | -80.84307 | 15905 ft | 360 kts | 32° |
| 2026-04-22 02:15 | 32.48028 | -80.82560 | 16496 ft | 363 kts | 32° |
| 2026-04-22 02:15 | 32.50086 | -80.80795 | 17071 ft | 366 kts | 32° |
| 2026-04-22 02:16 | 32.52155 | -80.79019 | 17626 ft | 369 kts | 32° |
| 2026-04-22 02:16 | 32.54246 | -80.77224 | 18175 ft | 373 kts | 31° |
| 2026-04-22 02:16 | 32.56358 | -80.75413 | 18728 ft | 376 kts | 31° |
| 2026-04-22 02:16 | 32.58495 | -80.73584 | 19274 ft | 380 kts | 31° |
| 2026-04-22 02:17 | 32.60652 | -80.71737 | 19805 ft | 384 kts | 31° |
| 2026-04-22 02:17 | 32.62829 | -80.69872 | 20331 ft | 388 kts | 31° |
| 2026-04-22 02:17 | 32.65000 | -80.68002 | 20850 ft | 391 kts | 31° |
| 2026-04-22 02:17 | 32.67211 | -80.66091 | 21336 ft | 395 kts | 31° |
| 2026-04-22 02:18 | 32.69451 | -80.64157 | 21796 ft | 399 kts | 31° |
| 2026-04-22 02:18 | 32.71657 | -80.62127 | 22237 ft | 405 kts | 37° |
| 2026-04-22 02:18 | 32.73736 | -80.59832 | 22677 ft | 409 kts | 38° |
| 2026-04-22 02:18 | 32.75804 | -80.57537 | 23119 ft | 412 kts | 38° |
| 2026-04-22 02:19 | 32.77909 | -80.55198 | 23536 ft | 415 kts | 38° |
| 2026-04-22 02:19 | 32.80034 | -80.52838 | 23953 ft | 418 kts | 38° |
| 2026-04-22 02:19 | 32.82173 | -80.50462 | 24371 ft | 422 kts | 38° |
| 2026-04-22 02:19 | 32.84329 | -80.48066 | 24780 ft | 425 kts | 38° |
| 2026-04-22 02:20 | 32.86497 | -80.45652 | 25151 ft | 428 kts | 38° |
| 2026-04-22 02:20 | 32.88655 | -80.43245 | 25517 ft | 432 kts | 38° |
| 2026-04-22 02:20 | 32.90855 | -80.40789 | 25875 ft | 435 kts | 38° |